Terminal Aerodrome Forecast
Issued by NWS

Current Version | Previous Version | Graphics & Text | Print | Product List | Glossary On
Versions: 1 2 3 4 5 6 7 8 9 10 11 12 13 14
000
FTUS41 KRNK 112343
TAFLWB
TAF
KLWB 112343Z 1200/1224 VRB03KT P6SM FEW250
     FM120600 21004KT P6SM BKN040 WS020/25035KT
     FM121000 25008KT P6SM OVC030
     FM121200 27011KT P6SM -SHSN BKN015
     FM121400 28012G20KT 4SM -SHSN OVC035
     FM121600 29013G21KT P6SM -SHSN BKN025=

USA.gov is the U.S. government's official web portal to all federal, state and local government web resources and services.